sensor_id;sensor_type;location;lat;lon;timestamp;pressure;altitude;pressure_sealevel;temperature;humidity
59650;BME280;46162;57.568;25.814;2024-01-15T00:01:42;97754.13;;;-7.90;100.00
59650;BME280;46162;57.568;25.814;2024-01-15T00:04:11;97744.91;;;-7.83;100.00
59650;BME280;46162;57.568;25.814;2024-01-15T00:06:40;97745.50;;;-7.79;100.00
59650;BME280;46162;57.568;25.814;2024-01-15T00:09:09;97743.34;;;-7.85;100.00
59650;BME280;46162;57.568;25.814;2024-01-15T00:11:38;97738.59;;;-7.80;100.00
59650;BME280;46162;57.568;25.814;2024-01-15T00:14:08;97735.25;;;-7.82;100.00
59650;BME280;46162;57.568;25.814;2024-01-15T00:16:36;97739.09;;;-7.75;100.00
59650;BME280;46162;57.568;25.814;2024-01-15T00:19:05;97740.34;;;-7.68;100.00
59650;BME280;46162;57.568;25.814;2024-01-15T00:21:34;97739.44;;;-7.80;100.00
59650;BME280;46162;57.568;25.814;2024-01-15T00:24:03;97734.75;;;-7.87;100.00
59650;BME280;46162;57.568;25.814;2024-01-15T00:26:32;97733.19;;;-7.90;100.00
59650;BME280;46162;57.568;25.814;2024-01-15T00:29:00;97731.06;;;-7.85;100.00
59650;BME280;46162;57.568;25.814;2024-01-15T00:31:31;97725.66;;;-7.94;100.00
59650;BME280;46162;57.568;25.814;2024-01-15T00:34:00;97729.59;;;-7.89;100.00
59650;BME280;46162;57.568;25.814;2024-01-15T00:36:29;97726.66;;;-7.84;100.00
59650;BME280;46162;57.568;25.814;2024-01-15T00:38:58;97724.16;;;-7.62;100.00
59650;BME280;46162;57.568;25.814;2024-01-15T00:41:27;97711.69;;;-7.58;100.00
59650;BME280;46162;57.568;25.814;2024-01-15T00:43:55;97720.84;;;-7.64;100.00
59650;BME280;46162;57.568;25.814;2024-01-15T00:46:24;97718.66;;;-7.46;100.00
59650;BME280;46162;57.568;25.814;2024-01-15T00:48:54;97713.84;;;-7.52;100.00
59650;BME280;46162;57.568;25.814;2024-01-15T00:51:23;97718.78;;;-7.47;100.00
59650;BME280;46162;57.568;25.814;2024-01-15T00:53:52;97703.28;;;-7.50;100.00
59650;BME280;46162;57.568;25.814;2024-01-15T00:56:20;97712.25;;;-7.66;100.00
59650;BME280;46162;57.568;25.814;2024-01-15T00:58:50;97712.41;;;-7.80;100.00
59650;BME280;46162;57.568;25.814;2024-01-15T01:01:19;97709.63;;;-7.66;100.00
59650;BME280;46162;57.568;25.814;2024-01-15T01:03:48;97705.34;;;-7.43;100.00
59650;BME280;46162;57.568;25.814;2024-01-15T01:06:19;97699.19;;;-7.30;100.00
59650;BME280;46162;57.568;25.814;2024-01-15T01:08:47;97698.78;;;-7.48;100.00
59650;BME280;46162;57.568;25.814;2024-01-15T01:11:16;97699.84;;;-7.40;100.00
59650;BME280;46162;57.568;25.814;2024-01-15T01:13:44;97697.13;;;-7.38;100.00
59650;BME280;46162;57.568;25.814;2024-01-15T01:16:13;97688.84;;;-7.21;100.00
59650;BME280;46162;57.568;25.814;2024-01-15T01:18:42;97693.00;;;-7.29;100.00
59650;BME280;46162;57.568;25.814;2024-01-15T01:21:11;97699.28;;;-7.32;100.00
59650;BME280;46162;57.568;25.814;2024-01-15T01:23:41;97685.84;;;-7.27;100.00
59650;BME280;46162;57.568;25.814;2024-01-15T01:26:10;97691.44;;;-7.32;100.00
59650;BME280;46162;57.568;25.814;2024-01-15T01:28:38;97686.19;;;-7.32;100.00
59650;BME280;46162;57.568;25.814;2024-01-15T01:31:07;97686.56;;;-7.37;100.00
59650;BME280;46162;57.568;25.814;2024-01-15T01:33:38;97691.72;;;-7.13;100.00
59650;BME280;46162;57.568;25.814;2024-01-15T01:36:07;97686.72;;;-7.16;100.00
59650;BME280;46162;57.568;25.814;2024-01-15T01:38:36;97678.03;;;-7.05;100.00
59650;BME280;46162;57.568;25.814;2024-01-15T01:41:06;97681.03;;;-7.09;100.00
59650;BME280;46162;57.568;25.814;2024-01-15T01:43:35;97686.78;;;-7.04;100.00
59650;BME280;46162;57.568;25.814;2024-01-15T01:46:05;97684.00;;;-7.03;100.00
59650;BME280;46162;57.568;25.814;2024-01-15T01:48:35;97679.88;;;-6.94;100.00
59650;BME280;46162;57.568;25.814;2024-01-15T01:51:04;97674.28;;;-6.89;100.00
59650;BME280;46162;57.568;25.814;2024-01-15T01:53:34;97672.00;;;-6.94;100.00
59650;BME280;46162;57.568;25.814;2024-01-15T01:56:04;97669.25;;;-6.93;100.00
59650;BME280;46162;57.568;25.814;2024-01-15T01:58:34;97664.81;;;-7.03;100.00
59650;BME280;46162;57.568;25.814;2024-01-15T02:01:04;97663.19;;;-6.93;100.00
59650;BME280;46162;57.568;25.814;2024-01-15T02:03:33;97672.31;;;-7.10;100.00
59650;BME280;46162;57.568;25.814;2024-01-15T02:06:03;97668.31;;;-6.92;100.00
59650;BME280;46162;57.568;25.814;2024-01-15T02:08:32;97666.75;;;-6.83;100.00
59650;BME280;46162;57.568;25.814;2024-01-15T02:11:02;97662.25;;;-6.81;100.00
59650;BME280;46162;57.568;25.814;2024-01-15T02:13:30;97666.31;;;-6.77;100.00
59650;BME280;46162;57.568;25.814;2024-01-15T02:16:00;97659.03;;;-6.84;100.00
59650;BME280;46162;57.568;25.814;2024-01-15T02:18:29;97659.03;;;-6.84;100.00
59650;BME280;46162;57.568;25.814;2024-01-15T02:21:07;97666.75;;;-6.83;100.00
59650;BME280;46162;57.568;25.814;2024-01-15T02:23:39;97664.13;;;-6.83;100.00
59650;BME280;46162;57.568;25.814;2024-01-15T02:26:08;97662.84;;;-6.77;100.00
59650;BME280;46162;57.568;25.814;2024-01-15T02:28:37;97671.34;;;-6.62;100.00
59650;BME280;46162;57.568;25.814;2024-01-15T02:31:05;97670.63;;;-6.64;100.00
59650;BME280;46162;57.568;25.814;2024-01-15T02:33:34;97657.47;;;-6.76;100.00
59650;BME280;46162;57.568;25.814;2024-01-15T02:36:03;97662.75;;;-6.64;100.00
59650;BME280;46162;57.568;25.814;2024-01-15T02:38:32;97662.03;;;-6.66;100.00
59650;BME280;46162;57.568;25.814;2024-01-15T02:41:02;97652.72;;;-6.59;100.00
59650;BME280;46162;57.568;25.814;2024-01-15T02:43:31;97650.31;;;-6.74;100.00
59650;BME280;46162;57.568;25.814;2024-01-15T02:45:59;97657.47;;;-6.76;100.00
59650;BME280;46162;57.568;25.814;2024-01-15T02:48:28;97651.28;;;-6.63;100.00
59650;BME280;46162;57.568;25.814;2024-01-15T02:50:57;97648.78;;;-6.65;100.00
59650;BME280;46162;57.568;25.814;2024-01-15T02:53:25;97647.72;;;-6.62;100.00
59650;BME280;46162;57.568;25.814;2024-01-15T02:55:54;97650.81;;;-6.57;100.00
59650;BME280;46162;57.568;25.814;2024-01-15T02:58:24;97650.22;;;-6.50;100.00
59650;BME280;46162;57.568;25.814;2024-01-15T03:00:53;97648.53;;;-6.39;100.00
59650;BME280;46162;57.568;25.814;2024-01-15T03:03:21;97647.94;;;-6.43;100.00
59650;BME280;46162;57.568;25.814;2024-01-15T03:05:50;97648.19;;;-6.57;100.00
59650;BME280;46162;57.568;25.814;2024-01-15T03:08:19;97648.66;;;-6.41;100.00
59650;BME280;46162;57.568;25.814;2024-01-15T03:10:50;97637.78;;;-6.36;100.00
59650;BME280;46162;57.568;25.814;2024-01-15T03:13:18;97638.63;;;-6.36;100.00
59650;BME280;46162;57.568;25.814;2024-01-15T03:15:48;97633.84;;;-6.31;100.00
59650;BME280;46162;57.568;25.814;2024-01-15T03:18:17;97636.72;;;-6.34;100.00
59650;BME280;46162;57.568;25.814;2024-01-15T03:20:46;97636.72;;;-6.34;100.00
59650;BME280;46162;57.568;25.814;2024-01-15T03:23:15;97633.16;;;-6.33;100.00
59650;BME280;46162;57.568;25.814;2024-01-15T03:25:43;97626.22;;;-6.34;100.00
59650;BME280;46162;57.568;25.814;2024-01-15T03:28:12;97625.53;;;-6.47;100.00
59650;BME280;46162;57.568;25.814;2024-01-15T03:30:40;97623.63;;;-6.45;100.00
59650;BME280;46162;57.568;25.814;2024-01-15T03:33:10;97618.84;;;-6.51;100.00
59650;BME280;46162;57.568;25.814;2024-01-15T03:35:39;97616.00;;;-6.59;100.00
59650;BME280;46162;57.568;25.814;2024-01-15T03:38:08;97615.75;;;-6.56;100.00
59650;BME280;46162;57.568;25.814;2024-01-15T03:40:37;97608.09;;;-6.71;100.00
59650;BME280;46162;57.568;25.814;2024-01-15T03:43:05;97607.03;;;-6.68;100.00
59650;BME280;46162;57.568;25.814;2024-01-15T03:45:34;97606.19;;;-6.68;100.00
59650;BME280;46162;57.568;25.814;2024-01-15T03:48:03;97602.41;;;-6.64;100.00
59650;BME280;46162;57.568;25.814;2024-01-15T03:50:33;97600.25;;;-6.82;100.00
59650;BME280;46162;57.568;25.814;2024-01-15T03:53:02;97592.03;;;-6.77;100.00
59650;BME280;46162;57.568;25.814;2024-01-15T03:55:31;97592.03;;;-6.77;100.00
59650;BME280;46162;57.568;25.814;2024-01-15T03:58:00;97592.38;;;-6.71;100.00
59650;BME280;46162;57.568;25.814;2024-01-15T04:00:32;97589.88;;;-6.72;100.00
59650;BME280;46162;57.568;25.814;2024-01-15T04:03:09;97583.78;;;-6.73;100.00
59650;BME280;46162;57.568;25.814;2024-01-15T04:05:42;97583.09;;;-6.75;100.00
59650;BME280;46162;57.568;25.814;2024-01-15T04:08:13;97576.03;;;-6.74;100.00
59650;BME280;46162;57.568;25.814;2024-01-15T04:10:48;97578.06;;;-6.66;100.00
59650;BME280;46162;57.568;25.814;2024-01-15T04:13:17;97569.22;;;-6.54;100.00
59650;BME280;46162;57.568;25.814;2024-01-15T04:15:49;97572.53;;;-6.41;100.00
59650;BME280;46162;57.568;25.814;2024-01-15T04:18:23;97574.31;;;-6.30;100.00
59650;BME280;46162;57.568;25.814;2024-01-15T04:20:54;97563.94;;;-6.32;100.00
59650;BME280;46162;57.568;25.814;2024-01-15T04:23:28;97572.16;;;-6.25;100.00
59650;BME280;46162;57.568;25.814;2024-01-15T04:26:00;97566.66;;;-6.33;100.00
59650;BME280;46162;57.568;25.814;2024-01-15T04:28:31;97557.59;;;-6.18;100.00
59650;BME280;46162;57.568;25.814;2024-01-15T04:31:01;97555.50;;;-6.03;100.00
59650;BME280;46162;57.568;25.814;2024-01-15T04:33:33;97555.38;;;-5.80;100.00
59650;BME280;46162;57.568;25.814;2024-01-15T04:36:04;97565.75;;;-6.00;100.00
59650;BME280;46162;57.568;25.814;2024-01-15T04:38:36;97551.91;;;-6.02;100.00
59650;BME280;46162;57.568;25.814;2024-01-15T04:41:11;97549.31;;;-6.13;100.00
59650;BME280;46162;57.568;25.814;2024-01-15T04:43:40;97549.19;;;-6.12;100.00
59650;BME280;46162;57.568;25.814;2024-01-15T04:46:09;97551.44;;;-6.07;100.00
59650;BME280;46162;57.568;25.814;2024-01-15T04:48:44;97543.91;;;-6.00;100.00
59650;BME280;46162;57.568;25.814;2024-01-15T04:51:18;97550.00;;;-6.00;100.00
59650;BME280;46162;57.568;25.814;2024-01-15T04:53:47;97549.22;;;-5.91;100.00
59650;BME280;46162;57.568;25.814;2024-01-15T04:56:16;97547.53;;;-5.92;100.00
59650;BME280;46162;57.568;25.814;2024-01-15T04:58:48;97550.97;;;-5.91;100.00
59650;BME280;46162;57.568;25.814;2024-01-15T05:01:17;97552.59;;;-5.79;100.00
59650;BME280;46162;57.568;25.814;2024-01-15T05:03:50;97551.81;;;-5.58;100.00
59650;BME280;46162;57.568;25.814;2024-01-15T05:06:31;97547.06;;;-5.44;100.00
59650;BME280;46162;57.568;25.814;2024-01-15T05:09:02;97556.28;;;-5.70;100.00
59650;BME280;46162;57.568;25.814;2024-01-15T05:11:33;97556.63;;;-5.64;100.00
59650;BME280;46162;57.568;25.814;2024-01-15T05:14:02;97549.22;;;-5.70;100.00
59650;BME280;46162;57.568;25.814;2024-01-15T05:16:38;97547.66;;;-5.61;100.00
59650;BME280;46162;57.568;25.814;2024-01-15T05:19:10;97540.84;;;-5.64;100.00
59650;BME280;46162;57.568;25.814;2024-01-15T05:21:43;97545.69;;;-5.59;100.00
59650;BME280;46162;57.568;25.814;2024-01-15T05:24:13;97535.00;;;-5.67;100.00
59650;BME280;46162;57.568;25.814;2024-01-15T05:26:43;97535.53;;;-5.73;100.00
59650;BME280;46162;57.568;25.814;2024-01-15T05:29:12;97538.81;;;-5.71;100.00
59650;BME280;46162;57.568;25.814;2024-01-15T05:31:41;97530.00;;;-5.70;100.00
59650;BME280;46162;57.568;25.814;2024-01-15T05:34:10;97537.81;;;-5.59;100.00
59650;BME280;46162;57.568;25.814;2024-01-15T05:36:43;97528.59;;;-5.53;100.00
59650;BME280;46162;57.568;25.814;2024-01-15T05:39:15;97537.66;;;-5.46;100.00
59650;BME280;46162;57.568;25.814;2024-01-15T05:41:48;97535.78;;;-5.55;100.00
59650;BME280;46162;57.568;25.814;2024-01-15T05:44:17;97526.63;;;-5.61;100.00
59650;BME280;46162;57.568;25.814;2024-01-15T05:46:53;97526.47;;;-5.59;100.00
59650;BME280;46162;57.568;25.814;2024-01-15T05:49:22;97530.38;;;-5.54;100.00
59650;BME280;46162;57.568;25.814;2024-01-15T05:51:58;97529.25;;;-5.61;100.00
59650;BME280;46162;57.568;25.814;2024-01-15T05:54:27;97538.91;;;-5.62;100.00
59650;BME280;46162;57.568;25.814;2024-01-15T05:57:02;97536.41;;;-5.63;100.00
59650;BME280;46162;57.568;25.814;2024-01-15T05:59:37;97528.22;;;-5.49;100.00
59650;BME280;46162;57.568;25.814;2024-01-15T06:02:09;97533.78;;;-5.42;100.00
59650;BME280;46162;57.568;25.814;2024-01-15T06:04:38;97527.88;;;-5.34;100.00
59650;BME280;46162;57.568;25.814;2024-01-15T06:07:11;97523.31;;;-5.32;100.00
59650;BME280;46162;57.568;25.814;2024-01-15T06:09:41;97523.75;;;-5.27;100.00
59650;BME280;46162;57.568;25.814;2024-01-15T06:12:15;97521.44;;;-5.21;100.00
59650;BME280;46162;57.568;25.814;2024-01-15T06:14:50;97525.56;;;-5.28;100.00
59650;BME280;46162;57.568;25.814;2024-01-15T06:17:22;97523.91;;;-5.50;100.00
59650;BME280;46162;57.568;25.814;2024-01-15T06:19:51;97525.25;;;-5.55;100.00
59650;BME280;46162;57.568;25.814;2024-01-15T06:22:24;97519.75;;;-5.73;100.00
59650;BME280;46162;57.568;25.814;2024-01-15T06:24:53;97522.31;;;-5.83;100.00
59650;BME280;46162;57.568;25.814;2024-01-15T06:27:28;97522.44;;;-5.85;100.00
59650;BME280;46162;57.568;25.814;2024-01-15T06:29:59;97518.22;;;-5.97;100.00
59650;BME280;46162;57.568;25.814;2024-01-15T06:32:31;97527.94;;;-5.88;100.00
59650;BME280;46162;57.568;25.814;2024-01-15T06:35:00;97523.59;;;-5.77;100.00
59650;BME280;46162;57.568;25.814;2024-01-15T06:37:32;97529.38;;;-5.63;100.00
59650;BME280;46162;57.568;25.814;2024-01-15T06:40:05;97532.63;;;-5.49;100.00
59650;BME280;46162;57.568;25.814;2024-01-15T06:42:42;97530.38;;;-5.54;100.00
59650;BME280;46162;57.568;25.814;2024-01-15T06:45:14;97530.63;;;-5.57;100.00
59650;BME280;46162;57.568;25.814;2024-01-15T06:47:46;97530.38;;;-5.54;100.00
59650;BME280;46162;57.568;25.814;2024-01-15T06:50:27;97524.88;;;-5.51;100.00
59650;BME280;46162;57.568;25.814;2024-01-15T06:53:02;97525.19;;;-5.44;100.00
59650;BME280;46162;57.568;25.814;2024-01-15T06:59:15;97514.03;;;-5.57;100.00
59650;BME280;46162;57.568;25.814;2024-01-15T07:03:13;97507.69;;;-5.55;100.00
59650;BME280;46162;57.568;25.814;2024-01-15T07:05:38;97518.72;;;-5.61;100.00
59650;BME280;46162;57.568;25.814;2024-01-15T07:08:36;97520.44;;;-5.50;100.00
59650;BME280;46162;57.568;25.814;2024-01-15T07:11:16;97517.72;;;-5.49;100.00
59650;BME280;46162;57.568;25.814;2024-01-15T07:13:51;97517.13;;;-5.52;100.00
59650;BME280;46162;57.568;25.814;2024-01-15T07:16:29;97516.91;;;-5.40;100.00
59650;BME280;46162;57.568;25.814;2024-01-15T07:19:06;97512.63;;;-5.41;100.00
59650;BME280;46162;57.568;25.814;2024-01-15T07:21:38;97519.53;;;-5.40;100.00
59650;BME280;46162;57.568;25.814;2024-01-15T07:24:14;97524.22;;;-5.43;100.00
59650;BME280;46162;57.568;25.814;2024-01-15T07:26:50;97520.25;;;-5.37;100.00
59650;BME280;46162;57.568;25.814;2024-01-15T07:29:27;97525.06;;;-5.22;100.00
59650;BME280;46162;57.568;25.814;2024-01-15T07:31:56;97525.34;;;-5.15;100.00
59650;BME280;46162;57.568;25.814;2024-01-15T07:34:28;97520.41;;;-5.08;100.00
59650;BME280;46162;57.568;25.814;2024-01-15T07:36:57;97515.81;;;-5.16;100.00
59650;BME280;46162;57.568;25.814;2024-01-15T07:39:27;97513.59;;;-5.11;100.00
59650;BME280;46162;57.568;25.814;2024-01-15T07:41:57;97514.31;;;-5.09;100.00
59650;BME280;46162;57.568;25.814;2024-01-15T07:44:26;97503.69;;;-4.98;100.00
59650;BME280;46162;57.568;25.814;2024-01-15T07:47:00;97511.25;;;-5.14;100.00
59650;BME280;46162;57.568;25.814;2024-01-15T07:49:31;97509.22;;;-5.31;100.00
59650;BME280;46162;57.568;25.814;2024-01-15T07:52:02;97505.88;;;-5.33;100.00
59650;BME280;46162;57.568;25.814;2024-01-15T07:54:39;97510.94;;;-5.42;100.00
59650;BME280;46162;57.568;25.814;2024-01-15T07:57:11;97509.16;;;-5.41;100.00
59650;BME280;46162;57.568;25.814;2024-01-15T07:59:40;97505.44;;;-5.38;100.00
59650;BME280;46162;57.568;25.814;2024-01-15T08:02:09;97501.34;;;-5.31;100.00
59650;BME280;46162;57.568;25.814;2024-01-15T08:04:38;97498.25;;;-5.36;100.00
59650;BME280;46162;57.568;25.814;2024-01-15T08:07:07;97493.13;;;-5.38;100.00
59650;BME280;46162;57.568;25.814;2024-01-15T08:09:37;97498.16;;;-5.25;100.00
59650;BME280;46162;57.568;25.814;2024-01-15T08:12:06;97498.78;;;-5.12;100.00
59650;BME280;46162;57.568;25.814;2024-01-15T08:14:37;97493.56;;;-5.02;100.00
59650;BME280;46162;57.568;25.814;2024-01-15T08:17:06;97491.38;;;-4.87;100.00
59650;BME280;46162;57.568;25.814;2024-01-15T08:19:36;97485.06;;;-4.75;100.00
59650;BME280;46162;57.568;25.814;2024-01-15T08:22:09;97483.44;;;-4.66;100.00
59650;BME280;46162;57.568;25.814;2024-01-15T08:24:42;97478.66;;;-4.82;100.00
59650;BME280;46162;57.568;25.814;2024-01-15T08:27:14;97473.84;;;-4.67;100.00
59650;BME280;46162;57.568;25.814;2024-01-15T08:29:42;97471.22;;;-4.77;100.00
59650;BME280;46162;57.568;25.814;2024-01-15T08:32:14;97471.91;;;-4.75;100.00
59650;BME280;46162;57.568;25.814;2024-01-15T08:34:43;97468.47;;;-4.66;100.00
59650;BME280;46162;57.568;25.814;2024-01-15T08:37:17;97469.84;;;-4.71;100.00
59650;BME280;46162;57.568;25.814;2024-01-15T08:39:47;97468.41;;;-4.85;100.00
59650;BME280;46162;57.568;25.814;2024-01-15T08:42:18;97468.13;;;-4.92;100.00
59650;BME280;46162;57.568;25.814;2024-01-15T08:44:47;97470.09;;;-4.84;100.00
59650;BME280;46162;57.568;25.814;2024-01-15T08:47:16;97473.41;;;-4.82;100.00
59650;BME280;46162;57.568;25.814;2024-01-15T08:49:45;97457.75;;;-4.84;100.00
59650;BME280;46162;57.568;25.814;2024-01-15T08:52:14;97454.31;;;-4.84;100.00
59650;BME280;46162;57.568;25.814;2024-01-15T08:54:43;97457.19;;;-4.87;100.00
59650;BME280;46162;57.568;25.814;2024-01-15T08:57:13;97459.72;;;-4.76;100.00
59650;BME280;46162;57.568;25.814;2024-01-15T08:59:44;97458.91;;;-4.77;100.00
59650;BME280;46162;57.568;25.814;2024-01-15T09:02:14;97454.31;;;-4.84;100.00
59650;BME280;46162;57.568;25.814;2024-01-15T09:04:45;97456.25;;;-4.77;100.00
59650;BME280;46162;57.568;25.814;2024-01-15T09:07:17;97457.09;;;-4.76;100.00
59650;BME280;46162;57.568;25.814;2024-01-15T09:09:46;97448.75;;;-4.81;100.00
59650;BME280;46162;57.568;25.814;2024-01-15T09:12:19;97453.91;;;-4.80;100.00
59650;BME280;46162;57.568;25.814;2024-01-15T09:14:49;97449.06;;;-4.74;100.00
59650;BME280;46162;57.568;25.814;2024-01-15T09:17:22;97446.56;;;-4.76;100.00
59650;BME280;46162;57.568;25.814;2024-01-15T09:19:54;97437.97;;;-4.78;100.00
59650;BME280;46162;57.568;25.814;2024-01-15T09:22:26;97447.41;;;-4.66;100.00
59650;BME280;46162;57.568;25.814;2024-01-15T09:24:55;97447.53;;;-4.67;100.00
59650;BME280;46162;57.568;25.814;2024-01-15T09:27:26;97443.53;;;-4.62;100.00
59650;BME280;46162;57.568;25.814;2024-01-15T09:29:58;97457.94;;;-4.56;100.00
59650;BME280;46162;57.568;25.814;2024-01-15T09:32:35;97448.41;;;-4.47;100.00
59650;BME280;46162;57.568;25.814;2024-01-15T09:35:05;97447.44;;;-4.46;100.00
59650;BME280;46162;57.568;25.814;2024-01-15T09:37:34;97444.13;;;-4.00;100.00
59650;BME280;46162;57.568;25.814;2024-01-15T09:53:18;97410.97;;;-3.93;100.00
59650;BME280;46162;57.568;25.814;2024-01-15T09:55:54;97411.91;;;-3.84;100.00
59650;BME280;46162;57.568;25.814;2024-01-15T09:58:31;97418.28;;;-3.86;100.00
59650;BME280;46162;57.568;25.814;2024-01-15T10:01:07;97416.34;;;-3.75;100.00
59650;BME280;46162;57.568;25.814;2024-01-15T10:03:36;97423.53;;;-3.67;100.00
59650;BME280;46162;57.568;25.814;2024-01-15T10:06:07;97412.59;;;-3.82;100.00
59650;BME280;46162;57.568;25.814;2024-01-15T10:08:40;97411.38;;;-3.87;100.00
59650;BME280;46162;57.568;25.814;2024-01-15T10:11:17;97408.44;;;-3.75;100.00
59650;BME280;46162;57.568;25.814;2024-01-15T10:13:49;97400.22;;;-3.72;100.00
59650;BME280;46162;57.568;25.814;2024-01-15T10:16:23;97400.19;;;-3.62;100.00
59650;BME280;46162;57.568;25.814;2024-01-15T10:18:54;97399.63;;;-3.56;100.00
59650;BME280;46162;57.568;25.814;2024-01-15T10:21:24;97389.09;;;-3.56;100.00
59650;BME280;46162;57.568;25.814;2024-01-15T10:23:55;97393.31;;;-3.35;100.00
59650;BME280;46162;57.568;25.814;2024-01-15T10:26:27;97386.44;;;-3.46;100.00
59650;BME280;46162;57.568;25.814;2024-01-15T10:28:57;97379.63;;;-3.49;100.00
59650;BME280;46162;57.568;25.814;2024-01-15T10:31:27;97378.53;;;-3.56;100.00
59650;BME280;46162;57.568;25.814;2024-01-15T10:34:10;97376.72;;;-3.55;100.00
59650;BME280;46162;57.568;25.814;2024-01-15T10:36:39;97367.13;;;-3.56;100.00
59650;BME280;46162;57.568;25.814;2024-01-15T10:39:10;97378.16;;;-3.61;100.00
59650;BME280;46162;57.568;25.814;2024-01-15T10:41:41;97377.44;;;-3.53;100.00
59650;BME280;46162;57.568;25.814;2024-01-15T10:44:11;97374.19;;;-3.47;100.00
59650;BME280;46162;57.568;25.814;2024-01-15T10:46:40;97375.41;;;-3.41;100.00
59650;BME280;46162;57.568;25.814;2024-01-15T10:49:10;97375.56;;;-3.43;100.00
59650;BME280;46162;57.568;25.814;2024-01-15T10:51:41;97377.22;;;-3.42;100.00
59650;BME280;46162;57.568;25.814;2024-01-15T10:54:13;97362.69;;;-3.46;100.00
59650;BME280;46162;57.568;25.814;2024-01-15T10:56:43;97350.28;;;-3.36;100.00
59650;BME280;46162;57.568;25.814;2024-01-15T10:59:13;97346.66;;;-3.35;100.00
59650;BME280;46162;57.568;25.814;2024-01-15T11:01:42;97353.75;;;-3.35;100.00
59650;BME280;46162;57.568;25.814;2024-01-15T11:04:14;97349.59;;;-3.38;100.00
59650;BME280;46162;57.568;25.814;2024-01-15T11:06:47;97343.19;;;-3.35;100.00
59650;BME280;46162;57.568;25.814;2024-01-15T11:09:20;97339.72;;;-3.36;100.00
59650;BME280;46162;57.568;25.814;2024-01-15T11:11:53;97336.41;;;-3.38;100.00
59650;BME280;46162;57.568;25.814;2024-01-15T11:14:37;97341.28;;;-3.43;100.00
59650;BME280;46162;57.568;25.814;2024-01-15T11:17:11;97337.31;;;-3.29;100.00
59650;BME280;46162;57.568;25.814;2024-01-15T11:19:43;97330.31;;;-3.38;100.00
59650;BME280;46162;57.568;25.814;2024-01-15T11:25:19;97333.47;;;-3.35;100.00
59650;BME280;46162;57.568;25.814;2024-01-15T11:27:49;97327.31;;;-3.26;100.00
59650;BME280;46162;57.568;25.814;2024-01-15T11:30:19;97330.00;;;-3.35;100.00
59650;BME280;46162;57.568;25.814;2024-01-15T11:32:49;97323.59;;;-3.33;100.00
59650;BME280;46162;57.568;25.814;2024-01-15T11:35:18;97328.81;;;-3.23;100.00
59650;BME280;46162;57.568;25.814;2024-01-15T11:37:58;97326.03;;;-3.21;100.00
59650;BME280;46162;57.568;25.814;2024-01-15T11:40:42;97314.81;;;-3.23;100.00
59650;BME280;46162;57.568;25.814;2024-01-15T11:43:15;97316.25;;;-3.11;100.00
59650;BME280;46162;57.568;25.814;2024-01-15T11:45:52;97314.22;;;-3.17;100.00
59650;BME280;46162;57.568;25.814;2024-01-15T11:48:21;97305.59;;;-3.19;100.00
59650;BME280;46162;57.568;25.814;2024-01-15T11:50:52;97299.38;;;-3.18;100.00
59650;BME280;46162;57.568;25.814;2024-01-15T11:53:30;97299.75;;;-3.13;100.00
59650;BME280;46162;57.568;25.814;2024-01-15T11:56:08;97288.31;;;-3.04;100.00
59650;BME280;46162;57.568;25.814;2024-01-15T11:58:40;97294.84;;;-3.08;100.00
59650;BME280;46162;57.568;25.814;2024-01-15T12:01:10;97291.69;;;-2.94;100.00
59650;BME280;46162;57.568;25.814;2024-01-15T12:03:40;97283.03;;;-3.04;100.00
59650;BME280;46162;57.568;25.814;2024-01-15T12:06:09;97284.75;;;-3.13;100.00
59650;BME280;46162;57.568;25.814;2024-01-15T12:08:39;97281.34;;;-3.05;100.00
59650;BME280;46162;57.568;25.814;2024-01-15T12:11:12;97273.06;;;-3.10;100.00
59650;BME280;46162;57.568;25.814;2024-01-15T12:13:42;97275.63;;;-3.18;100.00
59650;BME280;46162;57.568;25.814;2024-01-15T12:16:11;97269.78;;;-3.22;100.00
59650;BME280;46162;57.568;25.814;2024-01-15T12:18:41;97276.06;;;-3.05;100.00
59650;BME280;46162;57.568;25.814;2024-01-15T12:21:10;97268.09;;;-3.13;100.00
59650;BME280;46162;57.568;25.814;2024-01-15T12:23:39;97279.59;;;-3.14;100.00
59650;BME280;46162;57.568;25.814;2024-01-15T12:26:10;97273.66;;;-3.16;100.00
59650;BME280;46162;57.568;25.814;2024-01-15T12:28:39;97269.53;;;-3.19;100.00
59650;BME280;46162;57.568;25.814;2024-01-15T12:31:08;97272.28;;;-3.20;100.00
59650;BME280;46162;57.568;25.814;2024-01-15T12:33:39;97270.94;;;-3.07;100.00
59650;BME280;46162;57.568;25.814;2024-01-15T12:36:08;97270.09;;;-3.07;100.00
59650;BME280;46162;57.568;25.814;2024-01-15T12:38:37;97266.34;;;-3.05;100.00
59650;BME280;46162;57.568;25.814;2024-01-15T12:41:06;97271.41;;;-3.11;100.00
59650;BME280;46162;57.568;25.814;2024-01-15T12:43:39;97263.31;;;-3.10;100.00
59650;BME280;46162;57.568;25.814;2024-01-15T12:46:09;97262.63;;;-3.12;100.00
59650;BME280;46162;57.568;25.814;2024-01-15T12:48:43;97266.41;;;-3.14;100.00
59650;BME280;46162;57.568;25.814;2024-01-15T12:51:13;97267.91;;;-3.12;100.00
59650;BME280;46162;57.568;25.814;2024-01-15T12:53:41;97261.13;;;-3.14;100.00
59650;BME280;46162;57.568;25.814;2024-01-15T12:56:13;97269.72;;;-3.12;100.00
59650;BME280;46162;57.568;25.814;2024-01-15T12:58:44;97264.16;;;-3.09;100.00
59650;BME280;46162;57.568;25.814;2024-01-15T13:01:13;97260.69;;;-2.92;100.00
59650;BME280;46162;57.568;25.814;2024-01-15T13:03:41;97262.44;;;-3.00;100.00
59650;BME280;46162;57.568;25.814;2024-01-15T13:06:13;97257.22;;;-3.10;100.00
59650;BME280;46162;57.568;25.814;2024-01-15T13:08:44;97255.19;;;-3.16;100.00
59650;BME280;46162;57.568;25.814;2024-01-15T13:11:13;97248.94;;;-3.15;100.00
59650;BME280;46162;57.568;25.814;2024-01-15T13:13:53;97255.19;;;-3.16;100.00
59650;BME280;46162;57.568;25.814;2024-01-15T13:16:28;97246.22;;;-3.23;100.00
59650;BME280;46162;57.568;25.814;2024-01-15T13:19:06;97250.88;;;-2.99;100.00
59650;BME280;46162;57.568;25.814;2024-01-15T13:21:45;97238.69;;;-3.18;100.00